Current River (Missouri), Doniphan (07068000)

StateMissouriLatestGood (2780 cfs)
RiverCurrent RiverRatingObservedEstimated
Updated2020-07-13 15:30 (39 minutes ago)Flood - The river is flooding. Obstacles can be treacherous or deadly. The river should be avoided at this stage for casual trips and definitely for the inexperienced. Trips should be attempted only with protective gear and equipment.Flood(none)7610
Discharge2780 cfs (median: 1800 cfs)High - The river is high and potentially dangerous, especially for the young and / or inexperienced. Normal stream obstacles are sometimes difficult to navigate. Extended distances can be attempted, but canoe travel may not be advisable.High(none)3249
Height0.79 feetGood - Conditions are ideal for a canoe or kayak. Boats typically will drag on fewer than one-quarter of riffles, if at all, and portages are unnecessary or rare. Normal float lengths can be attempted without a problem.Good(none)2314
TrendSteady (falling over 24 hours)Low - River is low but can still be floated. Some riffles are okay but most come with significant dragging and might need a portage. Float lengths should be reduced to accommodate low flow, dragging, and portages.Low(none)1803
USGSExternal icon USGS Site (External icon Google Maps)Poor - River is too low to float comfortably. Most or all riffles will drag or must be portaged and some obstacles (such as slick shelf rock) cause undue problems. Avoid the river at this stage for casual paddling trips.Poor(none)1111

Trending Data

Plot Image

Trips for Current River (Missouri), Doniphan (07068000)

DateStartEndDistanceConditionDischargeHeightFishingDetails

A total of 0 rows are displayed.

Condition Descriptions

Fishing Conditions

Fish Species

Notes

Classic Trip List

The classic River Trips application is still available for use. It is updated with the new system using a data retrofit. It is no longer maintained. The original River Trips application is no longer updated (as of 1 Dec 2016) but can be checked for errors or for the condition of the data before it was converted to the new system.

Gauge Data Table

ObservationHeightDischargeMaximum
Discharge
Minimum
Discharge
Mean
Discharge
P05P10P20P25P50
(Median)
P75P80P90P95
2020-07-13 15:30 0.79 2780 13000 (1951) 940 (1934) 2080 1080 1220 1330 1400 1800 2260 2500 2820 3550
2020-07-13 14:30 0.79 2780 13000 (1951) 940 (1934) 2080 1080 1220 1330 1400 1800 2260 2500 2820 3550
2020-07-13 13:30 0.79 2780 13000 (1951) 940 (1934) 2080 1080 1220 1330 1400 1800 2260 2500 2820 3550
2020-07-13 12:30 0.79 2780 13000 (1951) 940 (1934) 2080 1080 1220 1330 1400 1800 2260 2500 2820 3550
2020-07-13 11:30 0.79 2780 13000 (1951) 940 (1934) 2080 1080 1220 1330 1400 1800 2260 2500 2820 3550
2020-07-13 10:30 0.80 2790 13000 (1951) 940 (1934) 2080 1080 1220 1330 1400 1800 2260 2500 2820 3550
2020-07-13 09:30 0.81 2800 13000 (1951) 940 (1934) 2080 1080 1220 1330 1400 1800 2260 2500 2820 3550
2020-07-13 08:30 0.80 2790 13000 (1951) 940 (1934) 2080 1080 1220 1330 1400 1800 2260 2500 2820 3550
2020-07-13 07:30 0.80 2790 13000 (1951) 940 (1934) 2080 1080 1220 1330 1400 1800 2260 2500 2820 3550
2020-07-13 06:30 0.80 2790 13000 (1951) 940 (1934) 2080 1080 1220 1330 1400 1800 2260 2500 2820 3550
2020-07-13 05:30 0.80 2790 13000 (1951) 940 (1934) 2080 1080 1220 1330 1400 1800 2260 2500 2820 3550
2020-07-13 04:30 0.80 2790 13000 (1951) 940 (1934) 2080 1080 1220 1330 1400 1800 2260 2500 2820 3550
2020-07-13 03:30 0.79 2780 13000 (1951) 940 (1934) 2080 1080 1220 1330 1400 1800 2260 2500 2820 3550
2020-07-13 02:30 0.81 2800 13000 (1951) 940 (1934) 2080 1080 1220 1330 1400 1800 2260 2500 2820 3550
2020-07-13 01:30 0.81 2800 13000 (1951) 940 (1934) 2080 1080 1220 1330 1400 1800 2260 2500 2820 3550
2020-07-13 00:30 0.81 2800 13000 (1951) 940 (1934) 2080 1080 1220 1330 1400 1800 2260 2500 2820 3550
2020-07-12 23:30 0.81 2800 24400 (2015) 940 (1934) 2320 1090 1230 1350 1410 1780 2240 2440 2860 3870
2020-07-12 22:30 0.82 2810 24400 (2015) 940 (1934) 2320 1090 1230 1350 1410 1780 2240 2440 2860 3870
2020-07-12 21:30 0.81 2800 24400 (2015) 940 (1934) 2320 1090 1230 1350 1410 1780 2240 2440 2860 3870
2020-07-12 20:30 0.82 2810 24400 (2015) 940 (1934) 2320 1090 1230 1350 1410 1780 2240 2440 2860 3870
2020-07-12 19:30 0.82 2810 24400 (2015) 940 (1934) 2320 1090 1230 1350 1410 1780 2240 2440 2860 3870
2020-07-12 18:30 0.83 2820 24400 (2015) 940 (1934) 2320 1090 1230 1350 1410 1780 2240 2440 2860 3870
2020-07-12 17:30 0.83 2820 24400 (2015) 940 (1934) 2320 1090 1230 1350 1410 1780 2240 2440 2860 3870
2020-07-12 16:30 0.83 2820 24400 (2015) 940 (1934) 2320 1090 1230 1350 1410 1780 2240 2440 2860 3870
2020-07-12 15:30 0.84 2840 24400 (2015) 940 (1934) 2320 1090 1230 1350 1410 1780 2240 2440 2860 3870
2020-07-12 14:30 0.84 2840 24400 (2015) 940 (1934) 2320 1090 1230 1350 1410 1780 2240 2440 2860 3870
2020-07-12 13:30 0.85 2850 24400 (2015) 940 (1934) 2320 1090 1230 1350 1410 1780 2240 2440 2860 3870
2020-07-12 12:30 0.86 2860 24400 (2015) 940 (1934) 2320 1090 1230 1350 1410 1780 2240 2440 2860 3870
2020-07-12 11:30 0.89 2890 24400 (2015) 940 (1934) 2320 1090 1230 1350 1410 1780 2240 2440 2860 3870
2020-07-12 10:30 0.88 2880 24400 (2015) 940 (1934) 2320 1090 1230 1350 1410 1780 2240 2440 2860 3870
2020-07-12 09:30 0.91 2920 24400 (2015) 940 (1934) 2320 1090 1230 1350 1410 1780 2240 2440 2860 3870
2020-07-12 08:30 0.91 2920 24400 (2015) 940 (1934) 2320 1090 1230 1350 1410 1780 2240 2440 2860 3870
2020-07-12 07:30 0.89 2890 24400 (2015) 940 (1934) 2320 1090 1230 1350 1410 1780 2240 2440 2860 3870
2020-07-12 06:30 0.90 2910 24400 (2015) 940 (1934) 2320 1090 1230 1350 1410 1780 2240 2440 2860 3870
2020-07-12 05:30 0.83 2820 24400 (2015) 940 (1934) 2320 1090 1230 1350 1410 1780 2240 2440 2860 3870
2020-07-12 04:30 0.83 2820 24400 (2015) 940 (1934) 2320 1090 1230 1350 1410 1780 2240 2440 2860 3870
2020-07-12 03:30 0.84 2840 24400 (2015) 940 (1934) 2320 1090 1230 1350 1410 1780 2240 2440 2860 3870
2020-07-12 02:30 0.84 2840 24400 (2015) 940 (1934) 2320 1090 1230 1350 1410 1780 2240 2440 2860 3870
2020-07-12 01:30 0.83 2820 24400 (2015) 940 (1934) 2320 1090 1230 1350 1410 1780 2240 2440 2860 3870
2020-07-12 00:30 0.83 2820 24400 (2015) 940 (1934) 2320 1090 1230 1350 1410 1780 2240 2440 2860 3870
2020-07-11 23:30 0.84 2840 21900 (1951) 940 (1934) 2260 1100 1230 1340 1400 1800 2200 2380 2910 4020
2020-07-11 22:30 0.84 2840 21900 (1951) 940 (1934) 2260 1100 1230 1340 1400 1800 2200 2380 2910 4020
2020-07-11 21:30 0.85 2850 21900 (1951) 940 (1934) 2260 1100 1230 1340 1400 1800 2200 2380 2910 4020
2020-07-11 20:30 0.85 2850 21900 (1951) 940 (1934) 2260 1100 1230 1340 1400 1800 2200 2380 2910 4020
2020-07-11 19:30 0.84 2840 21900 (1951) 940 (1934) 2260 1100 1230 1340 1400 1800 2200 2380 2910 4020
2020-07-11 18:30 0.86 2860 21900 (1951) 940 (1934) 2260 1100 1230 1340 1400 1800 2200 2380 2910 4020
2020-07-11 17:30 0.85 2850 21900 (1951) 940 (1934) 2260 1100 1230 1340 1400 1800 2200 2380 2910 4020
2020-07-11 16:30 0.86 2860 21900 (1951) 940 (1934) 2260 1100 1230 1340 1400 1800 2200 2380 2910 4020
2020-07-11 15:30 0.85 2850 21900 (1951) 940 (1934) 2260 1100 1230 1340 1400 1800 2200 2380 2910 4020
2020-07-11 14:30 0.85 2850 21900 (1951) 940 (1934) 2260 1100 1230 1340 1400 1800 2200 2380 2910 4020
2020-07-11 13:30 0.86 2860 21900 (1951) 940 (1934) 2260 1100 1230 1340 1400 1800 2200 2380 2910 4020
2020-07-11 12:30 0.87 2870 21900 (1951) 940 (1934) 2260 1100 1230 1340 1400 1800 2200 2380 2910 4020
2020-07-11 11:30 0.86 2860 21900 (1951) 940 (1934) 2260 1100 1230 1340 1400 1800 2200 2380 2910 4020
2020-07-11 10:30 0.87 2870 21900 (1951) 940 (1934) 2260 1100 1230 1340 1400 1800 2200 2380 2910 4020
2020-07-11 09:30 0.86 2860 21900 (1951) 940 (1934) 2260 1100 1230 1340 1400 1800 2200 2380 2910 4020
2020-07-11 08:30 0.87 2870 21900 (1951) 940 (1934) 2260 1100 1230 1340 1400 1800 2200 2380 2910 4020
2020-07-11 07:30 0.86 2860 21900 (1951) 940 (1934) 2260 1100 1230 1340 1400 1800 2200 2380 2910 4020
2020-07-11 06:30 0.87 2870 21900 (1951) 940 (1934) 2260 1100 1230 1340 1400 1800 2200 2380 2910 4020
2020-07-11 05:30 0.86 2860 21900 (1951) 940 (1934) 2260 1100 1230 1340 1400 1800 2200 2380 2910 4020
2020-07-11 04:30 0.86 2860 21900 (1951) 940 (1934) 2260 1100 1230 1340 1400 1800 2200 2380 2910 4020
2020-07-11 03:30 0.86 2860 21900 (1951) 940 (1934) 2260 1100 1230 1340 1400 1800 2200 2380 2910 4020
2020-07-11 02:30 0.86 2860 21900 (1951) 940 (1934) 2260 1100 1230 1340 1400 1800 2200 2380 2910 4020
2020-07-11 01:30 0.87 2870 21900 (1951) 940 (1934) 2260 1100 1230 1340 1400 1800 2200 2380 2910 4020
2020-07-11 00:30 0.88 2880 21900 (1951) 940 (1934) 2260 1100 1230 1340 1400 1800 2200 2380 2910 4020
2020-07-10 23:30 0.87 2870 10300 (1951) 940 (1934) 2090 1070 1230 1360 1410 1840 2300 2420 3050 4320
2020-07-10 22:30 0.88 2880 10300 (1951) 940 (1934) 2090 1070 1230 1360 1410 1840 2300 2420 3050 4320
2020-07-10 21:30 0.88 2880 10300 (1951) 940 (1934) 2090 1070 1230 1360 1410 1840 2300 2420 3050 4320
2020-07-10 20:30 0.88 2880 10300 (1951) 940 (1934) 2090 1070 1230 1360 1410 1840 2300 2420 3050 4320
2020-07-10 19:30 0.88 2880 10300 (1951) 940 (1934) 2090 1070 1230 1360 1410 1840 2300 2420 3050 4320
2020-07-10 18:30 0.88 2880 10300 (1951) 940 (1934) 2090 1070 1230 1360 1410 1840 2300 2420 3050 4320
2020-07-10 17:30 0.89 2890 10300 (1951) 940 (1934) 2090 1070 1230 1360 1410 1840 2300 2420 3050 4320
2020-07-10 16:30 0.89 2890 10300 (1951) 940 (1934) 2090 1070 1230 1360 1410 1840 2300 2420 3050 4320
2020-07-10 15:30 0.90 2910 10300 (1951) 940 (1934) 2090 1070 1230 1360 1410 1840 2300 2420 3050 4320
2020-07-10 14:30 0.89 2890 10300 (1951) 940 (1934) 2090 1070 1230 1360 1410 1840 2300 2420 3050 4320
2020-07-10 13:30 0.91 2920 10300 (1951) 940 (1934) 2090 1070 1230 1360 1410 1840 2300 2420 3050 4320
2020-07-10 12:30 0.91 2920 10300 (1951) 940 (1934) 2090 1070 1230 1360 1410 1840 2300 2420 3050 4320
2020-07-10 11:30 0.90 2910 10300 (1951) 940 (1934) 2090 1070 1230 1360 1410 1840 2300 2420 3050 4320
2020-07-10 10:30 0.91 2920 10300 (1951) 940 (1934) 2090 1070 1230 1360 1410 1840 2300 2420 3050 4320
2020-07-10 09:30 0.91 2920 10300 (1951) 940 (1934) 2090 1070 1230 1360 1410 1840 2300 2420 3050 4320
2020-07-10 08:30 0.91 2920 10300 (1951) 940 (1934) 2090 1070 1230 1360 1410 1840 2300 2420 3050 4320
2020-07-10 07:30 0.92 2930 10300 (1951) 940 (1934) 2090 1070 1230 1360 1410 1840 2300 2420 3050 4320
2020-07-10 06:30 0.91 2920 10300 (1951) 940 (1934) 2090 1070 1230 1360 1410 1840 2300 2420 3050 4320
2020-07-10 05:30 0.90 2910 10300 (1951) 940 (1934) 2090 1070 1230 1360 1410 1840 2300 2420 3050 4320
2020-07-10 04:30 0.91 2920 10300 (1951) 940 (1934) 2090 1070 1230 1360 1410 1840 2300 2420 3050 4320
2020-07-10 03:30 0.90 2910 10300 (1951) 940 (1934) 2090 1070 1230 1360 1410 1840 2300 2420 3050 4320
2020-07-10 02:30 0.90 2910 10300 (1951) 940 (1934) 2090 1070 1230 1360 1410 1840 2300 2420 3050 4320
2020-07-10 01:30 0.91 2920 10300 (1951) 940 (1934) 2090 1070 1230 1360 1410 1840 2300 2420 3050 4320
2020-07-10 00:30 0.92 2930 10300 (1951) 940 (1934) 2090 1070 1230 1360 1410 1840 2300 2420 3050 4320
2020-07-09 23:30 0.91 2920 7660 (1949) 940 (1934) 2080 1140 1230 1380 1420 1860 2340 2490 3170 4470
2020-07-09 22:30 0.92 2930 7660 (1949) 940 (1934) 2080 1140 1230 1380 1420 1860 2340 2490 3170 4470
2020-07-09 21:30 0.92 2930 7660 (1949) 940 (1934) 2080 1140 1230 1380 1420 1860 2340 2490 3170 4470
2020-07-09 20:30 0.92 2930 7660 (1949) 940 (1934) 2080 1140 1230 1380 1420 1860 2340 2490 3170 4470
2020-07-09 19:30 0.93 2940 7660 (1949) 940 (1934) 2080 1140 1230 1380 1420 1860 2340 2490 3170 4470
2020-07-09 18:30 0.92 2930 7660 (1949) 940 (1934) 2080 1140 1230 1380 1420 1860 2340 2490 3170 4470
2020-07-09 17:30 0.92 2930 7660 (1949) 940 (1934) 2080 1140 1230 1380 1420 1860 2340 2490 3170 4470
2020-07-09 16:30 0.91 2920 7660 (1949) 940 (1934) 2080 1140 1230 1380 1420 1860 2340 2490 3170 4470
2020-07-09 15:30 0.93 2940 7660 (1949) 940 (1934) 2080 1140 1230 1380 1420 1860 2340 2490 3170 4470
2020-07-09 14:30 0.93 2940 7660 (1949) 940 (1934) 2080 1140 1230 1380 1420 1860 2340 2490 3170 4470
2020-07-09 13:30 0.93 2940 7660 (1949) 940 (1934) 2080 1140 1230 1380 1420 1860 2340 2490 3170 4470
2020-07-09 12:30 0.92 2930 7660 (1949) 940 (1934) 2080 1140 1230 1380 1420 1860 2340 2490 3170 4470
2020-07-09 11:30 0.93 2940 7660 (1949) 940 (1934) 2080 1140 1230 1380 1420 1860 2340 2490 3170 4470
2020-07-09 10:30 0.93 2940 7660 (1949) 940 (1934) 2080 1140 1230 1380 1420 1860 2340 2490 3170 4470
2020-07-09 09:30 0.94 2950 7660 (1949) 940 (1934) 2080 1140 1230 1380 1420 1860 2340 2490 3170 4470
2020-07-09 08:30 0.92 2930 7660 (1949) 940 (1934) 2080 1140 1230 1380 1420 1860 2340 2490 3170 4470
2020-07-09 07:30 0.94 2950 7660 (1949) 940 (1934) 2080 1140 1230 1380 1420 1860 2340 2490 3170 4470
2020-07-09 06:30 0.93 2940 7660 (1949) 940 (1934) 2080 1140 1230 1380 1420 1860 2340 2490 3170 4470
2020-07-09 05:30 0.93 2940 7660 (1949) 940 (1934) 2080 1140 1230 1380 1420 1860 2340 2490 3170 4470
2020-07-09 04:30 0.94 2950 7660 (1949) 940 (1934) 2080 1140 1230 1380 1420 1860 2340 2490 3170 4470
2020-07-09 03:30 0.93 2940 7660 (1949) 940 (1934) 2080 1140 1230 1380 1420 1860 2340 2490 3170 4470
2020-07-09 02:30 0.93 2940 7660 (1949) 940 (1934) 2080 1140 1230 1380 1420 1860 2340 2490 3170 4470
2020-07-09 01:30 0.93 2940 7660 (1949) 940 (1934) 2080 1140 1230 1380 1420 1860 2340 2490 3170 4470
2020-07-09 00:30 0.93 2940 7660 (1949) 940 (1934) 2080 1140 1230 1380 1420 1860 2340 2490 3170 4470
2020-07-08 23:30 0.94 2950 5460 (1948) 940 (1934) 2100 1120 1260 1420 1430 1910 2440 2630 3240 4160
2020-07-08 22:30 0.94 2950 5460 (1948) 940 (1934) 2100 1120 1260 1420 1430 1910 2440 2630 3240 4160
2020-07-08 21:30 0.94 2950 5460 (1948) 940 (1934) 2100 1120 1260 1420 1430 1910 2440 2630 3240 4160
2020-07-08 20:30 0.94 2950 5460 (1948) 940 (1934) 2100 1120 1260 1420 1430 1910 2440 2630 3240 4160
2020-07-08 19:30 0.94 2950 5460 (1948) 940 (1934) 2100 1120 1260 1420 1430 1910 2440 2630 3240 4160
2020-07-08 18:30 0.98 3000 5460 (1948) 940 (1934) 2100 1120 1260 1420 1430 1910 2440 2630 3240 4160
2020-07-08 17:30 0.95 2970 5460 (1948) 940 (1934) 2100 1120 1260 1420 1430 1910 2440 2630 3240 4160
2020-07-08 16:30 0.96 2980 5460 (1948) 940 (1934) 2100 1120 1260 1420 1430 1910 2440 2630 3240 4160
2020-07-08 15:30 0.97 2990 5460 (1948) 940 (1934) 2100 1120 1260 1420 1430 1910 2440 2630 3240 4160
2020-07-08 14:30 0.96 2980 5460 (1948) 940 (1934) 2100 1120 1260 1420 1430 1910 2440 2630 3240 4160
2020-07-08 13:30 0.97 2990 5460 (1948) 940 (1934) 2100 1120 1260 1420 1430 1910 2440 2630 3240 4160
2020-07-08 12:30 0.97 2990 5460 (1948) 940 (1934) 2100 1120 1260 1420 1430 1910 2440 2630 3240 4160
2020-07-08 11:30 0.96 2980 5460 (1948) 940 (1934) 2100 1120 1260 1420 1430 1910 2440 2630 3240 4160
2020-07-08 10:30 0.96 2980 5460 (1948) 940 (1934) 2100 1120 1260 1420 1430 1910 2440 2630 3240 4160
2020-07-08 09:30 0.97 2990 5460 (1948) 940 (1934) 2100 1120 1260 1420 1430 1910 2440 2630 3240 4160
2020-07-08 08:30 0.96 2980 5460 (1948) 940 (1934) 2100 1120 1260 1420 1430 1910 2440 2630 3240 4160
2020-07-08 07:30 0.98 3000 5460 (1948) 940 (1934) 2100 1120 1260 1420 1430 1910 2440 2630 3240 4160
2020-07-08 06:30 0.99 3010 5460 (1948) 940 (1934) 2100 1120 1260 1420 1430 1910 2440 2630 3240 4160
2020-07-08 05:30 0.98 3000 5460 (1948) 940 (1934) 2100 1120 1260 1420 1430 1910 2440 2630 3240 4160
2020-07-08 04:30 0.97 2990 5460 (1948) 940 (1934) 2100 1120 1260 1420 1430 1910 2440 2630 3240 4160
2020-07-08 03:30 0.97 2990 5460 (1948) 940 (1934) 2100 1120 1260 1420 1430 1910 2440 2630 3240 4160
2020-07-08 02:30 0.98 3000 5460 (1948) 940 (1934) 2100 1120 1260 1420 1430 1910 2440 2630 3240 4160
2020-07-08 01:30 0.97 2990 5460 (1948) 940 (1934) 2100 1120 1260 1420 1430 1910 2440 2630 3240 4160
2020-07-08 00:30 0.98 3000 5460 (1948) 940 (1934) 2100 1120 1260 1420 1430 1910 2440 2630 3240 4160
2020-07-07 23:30 0.99 3010 5860 (1951) 998 (1936) 2080 1150 1260 1430 1460 1940 2350 2510 3160 3710
2020-07-07 22:30 0.99 3010 5860 (1951) 998 (1936) 2080 1150 1260 1430 1460 1940 2350 2510 3160 3710
2020-07-07 21:30 0.99 3010 5860 (1951) 998 (1936) 2080 1150 1260 1430 1460 1940 2350 2510 3160 3710
2020-07-07 20:30 0.98 3000 5860 (1951) 998 (1936) 2080 1150 1260 1430 1460 1940 2350 2510 3160 3710
2020-07-07 19:30 1.00 3030 5860 (1951) 998 (1936) 2080 1150 1260 1430 1460 1940 2350 2510 3160 3710
2020-07-07 18:30 0.99 3010 5860 (1951) 998 (1936) 2080 1150 1260 1430 1460 1940 2350 2510 3160 3710
2020-07-07 17:30 1.01 3040 5860 (1951) 998 (1936) 2080 1150 1260 1430 1460 1940 2350 2510 3160 3710
2020-07-07 16:30 1.03 3060 5860 (1951) 998 (1936) 2080 1150 1260 1430 1460 1940 2350 2510 3160 3710
2020-07-07 15:30 1.09 3140 5860 (1951) 998 (1936) 2080 1150 1260 1430 1460 1940 2350 2510 3160 3710
2020-07-07 14:30 1.03 3060 5860 (1951) 998 (1936) 2080 1150 1260 1430 1460 1940 2350 2510 3160 3710
2020-07-07 13:30 1.01 3040 5860 (1951) 998 (1936) 2080 1150 1260 1430 1460 1940 2350 2510 3160 3710
2020-07-07 12:30 1.01 3040 5860 (1951) 998 (1936) 2080 1150 1260 1430 1460 1940 2350 2510 3160 3710
2020-07-07 11:30 1.00 3030 5860 (1951) 998 (1936) 2080 1150 1260 1430 1460 1940 2350 2510 3160 3710
2020-07-07 10:30 1.01 3040 5860 (1951) 998 (1936) 2080 1150 1260 1430 1460 1940 2350 2510 3160 3710
2020-07-07 09:30 1.01 3040 5860 (1951) 998 (1936) 2080 1150 1260 1430 1460 1940 2350 2510 3160 3710
2020-07-07 08:30 1.02 3050 5860 (1951) 998 (1936) 2080 1150 1260 1430 1460 1940 2350 2510 3160 3710
2020-07-07 07:30 1.03 3060 5860 (1951) 998 (1936) 2080 1150 1260 1430 1460 1940 2350 2510 3160 3710
2020-07-07 06:30 1.04 3080 5860 (1951) 998 (1936) 2080 1150 1260 1430 1460 1940 2350 2510 3160 3710
2020-07-07 05:30 1.02 3050 5860 (1951) 998 (1936) 2080 1150 1260 1430 1460 1940 2350 2510 3160 3710
2020-07-07 04:30 1.02 3050 5860 (1951) 998 (1936) 2080 1150 1260 1430 1460 1940 2350 2510 3160 3710
2020-07-07 03:30 1.03 3060 5860 (1951) 998 (1936) 2080 1150 1260 1430 1460 1940 2350 2510 3160 3710
2020-07-07 02:30 1.02 3050 5860 (1951) 998 (1936) 2080 1150 1260 1430 1460 1940 2350 2510 3160 3710
2020-07-07 01:30 1.06 3100 5860 (1951) 998 (1936) 2080 1150 1260 1430 1460 1940 2350 2510 3160 3710
2020-07-07 00:30 1.04 3080 5860 (1951) 998 (1936) 2080 1150 1260 1430 1460 1940 2350 2510 3160 3710
2020-07-06 23:30 1.04 3080 6600 (1951) 998 (1936) 2130 1120 1270 1410 1450 1970 2420 2570 3220 4180
2020-07-06 22:30 1.06 3100 6600 (1951) 998 (1936) 2130 1120 1270 1410 1450 1970 2420 2570 3220 4180
2020-07-06 21:30 1.07 3110 6600 (1951) 998 (1936) 2130 1120 1270 1410 1450 1970 2420 2570 3220 4180
2020-07-06 20:30 1.09 3140 6600 (1951) 998 (1936) 2130 1120 1270 1410 1450 1970 2420 2570 3220 4180
2020-07-06 19:30 1.08 3120 6600 (1951) 998 (1936) 2130 1120 1270 1410 1450 1970 2420 2570 3220 4180
2020-07-06 18:30 1.10 3150 6600 (1951) 998 (1936) 2130 1120 1270 1410 1450 1970 2420 2570 3220 4180
2020-07-06 17:30 1.07 3110 6600 (1951) 998 (1936) 2130 1120 1270 1410 1450 1970 2420 2570 3220 4180
2020-07-06 16:30 1.06 3100 6600 (1951) 998 (1936) 2130 1120 1270 1410 1450 1970 2420 2570 3220 4180
2020-07-06 15:30 1.05 3090 6600 (1951) 998 (1936) 2130 1120 1270 1410 1450 1970 2420 2570 3220 4180
2020-07-06 14:30 1.07 3110 6600 (1951) 998 (1936) 2130 1120 1270 1410 1450 1970 2420 2570 3220 4180
2020-07-06 13:30 1.05 3090 6600 (1951) 998 (1936) 2130 1120 1270 1410 1450 1970 2420 2570 3220 4180
2020-07-06 12:30 1.06 3100 6600 (1951) 998 (1936) 2130 1120 1270 1410 1450 1970 2420 2570 3220 4180
2020-07-06 11:30 1.05 3090 6600 (1951) 998 (1936) 2130 1120 1270 1410 1450 1970 2420 2570 3220 4180
2020-07-06 10:30 1.06 3100 6600 (1951) 998 (1936) 2130 1120 1270 1410 1450 1970 2420 2570 3220 4180
2020-07-06 09:30 1.06 3100 6600 (1951) 998 (1936) 2130 1120 1270 1410 1450 1970 2420 2570 3220 4180
2020-07-06 08:30 1.07 3110 6600 (1951) 998 (1936) 2130 1120 1270 1410 1450 1970 2420 2570 3220 4180
2020-07-06 07:30 1.06 3100 6600 (1951) 998 (1936) 2130 1120 1270 1410 1450 1970 2420 2570 3220 4180
2020-07-06 06:30 1.07 3110 6600 (1951) 998 (1936) 2130 1120 1270 1410 1450 1970 2420 2570 3220 4180
2020-07-06 05:30 1.07 3110 6600 (1951) 998 (1936) 2130 1120 1270 1410 1450 1970 2420 2570 3220 4180
2020-07-06 04:30 1.07 3110 6600 (1951) 998 (1936) 2130 1120 1270 1410 1450 1970 2420 2570 3220 4180
2020-07-06 03:30 1.08 3120 6600 (1951) 998 (1936) 2130 1120 1270 1410 1450 1970 2420 2570 3220 4180
2020-07-06 02:30 1.08 3120 6600 (1951) 998 (1936) 2130 1120 1270 1410 1450 1970 2420 2570 3220 4180
2020-07-06 01:30 1.08 3120 6600 (1951) 998 (1936) 2130 1120 1270 1410 1450 1970 2420 2570 3220 4180
2020-07-06 00:30 1.08 3120 6600 (1951) 998 (1936) 2130 1120 1270 1410 1450 1970 2420 2570 3220 4180

A total of 184 rows are displayed for years 1921 through 2019.